createdAt,value
2022-07-25T00:01:13.416Z,17.40
2022-07-25T00:03:40.768Z,17.30
2022-07-25T00:06:13.374Z,17.40
2022-07-25T00:08:44.287Z,17.30
2022-07-25T00:11:11.011Z,17.30
2022-07-25T00:13:37.565Z,17.30
2022-07-25T00:16:04.665Z,17.30
2022-07-25T00:18:31.489Z,17.20
2022-07-25T00:20:59.010Z,17.20
2022-07-25T00:23:25.482Z,17.30
2022-07-25T00:25:51.951Z,17.20
2022-07-25T00:28:18.939Z,17.20
2022-07-25T00:30:45.733Z,17.10
2022-07-25T00:33:12.373Z,17.10
2022-07-25T00:35:38.847Z,17.20
2022-07-25T00:38:05.381Z,17.20
2022-07-25T00:40:32.044Z,17.20
2022-07-25T00:42:58.507Z,17.20
2022-07-25T00:45:25.041Z,17.10
2022-07-25T00:47:51.495Z,17.10
2022-07-25T00:50:18.114Z,17.10
2022-07-25T00:52:45.085Z,17.10
2022-07-25T00:55:12.468Z,17.10
2022-07-25T00:57:38.928Z,17.00
2022-07-25T01:00:08.802Z,17.00
2022-07-25T01:02:35.463Z,16.90
2022-07-25T01:05:04.667Z,16.90
2022-07-25T01:07:31.618Z,16.90
2022-07-25T01:09:59.294Z,16.90
2022-07-25T01:12:25.966Z,16.80
2022-07-25T01:14:52.475Z,16.80
2022-07-25T01:17:18.935Z,16.70
2022-07-25T01:19:46.384Z,16.80
2022-07-25T01:22:13.686Z,16.70
2022-07-25T01:24:40.203Z,16.70
2022-07-25T01:27:06.742Z,16.70
2022-07-25T01:29:33.386Z,16.70
2022-07-25T01:32:02.534Z,16.70
2022-07-25T01:34:29.081Z,16.80
2022-07-25T01:36:55.592Z,16.70
2022-07-25T01:39:22.050Z,16.80
2022-07-25T01:41:50.603Z,16.70
2022-07-25T01:44:17.343Z,16.70
2022-07-25T01:46:43.889Z,16.70
2022-07-25T01:49:10.582Z,16.70
2022-07-25T01:51:38.050Z,16.70
2022-07-25T01:54:06.701Z,16.80
2022-07-25T01:56:37.054Z,16.60
2022-07-25T01:59:03.506Z,16.70
2022-07-25T02:01:30.070Z,16.70
2022-07-25T02:03:56.544Z,16.70
2022-07-25T02:06:23.227Z,16.70
2022-07-25T02:08:49.886Z,16.60
2022-07-25T02:11:16.421Z,16.60
2022-07-25T02:13:42.897Z,16.60
2022-07-25T02:16:09.465Z,16.50
2022-07-25T02:18:35.930Z,16.50
2022-07-25T02:21:02.605Z,16.50
2022-07-25T02:23:29.100Z,16.50
2022-07-25T02:25:55.570Z,16.40
2022-07-25T02:28:22.068Z,16.40
2022-07-25T02:30:48.791Z,16.30
2022-07-25T02:33:15.347Z,16.30
2022-07-25T02:35:42.071Z,16.30
2022-07-25T02:38:08.537Z,16.40
2022-07-25T02:40:35.320Z,16.30
2022-07-25T02:43:01.781Z,16.30
2022-07-25T02:45:28.288Z,16.30
2022-07-25T02:47:54.755Z,16.30
2022-07-25T02:50:23.243Z,16.30
2022-07-25T02:52:49.720Z,16.30
2022-07-25T02:55:16.409Z,16.30
2022-07-25T02:57:42.908Z,16.20
2022-07-25T03:00:10.330Z,16.20
2022-07-25T03:02:36.919Z,16.20
2022-07-25T03:05:07.301Z,16.20
2022-07-25T03:07:33.931Z,16.20
2022-07-25T03:10:00.434Z,16.20
2022-07-25T03:12:26.949Z,16.20
2022-07-25T03:14:53.479Z,16.20
2022-07-25T03:17:19.986Z,16.20
2022-07-25T03:19:46.463Z,16.20
2022-07-25T03:22:13.008Z,16.10
2022-07-25T03:24:39.466Z,16.10
2022-07-25T03:27:05.945Z,16.10
2022-07-25T03:29:32.445Z,16.20
2022-07-25T03:31:59.533Z,16.10
2022-07-25T03:34:26.251Z,16.20
2022-07-25T03:36:52.817Z,16.20
2022-07-25T03:39:20.574Z,16.20
2022-07-25T03:41:47.173Z,16.20
2022-07-25T03:44:13.997Z,16.20
2022-07-25T03:46:40.506Z,16.30
2022-07-25T03:49:07.094Z,16.30
2022-07-25T03:51:33.701Z,16.30
2022-07-25T03:54:03.224Z,16.30
2022-07-25T03:56:31.454Z,16.20
2022-07-25T03:58:58.284Z,16.30
2022-07-25T04:01:24.832Z,16.30
2022-07-25T04:03:53.617Z,16.30
2022-07-25T04:06:20.112Z,16.40
2022-07-25T04:08:46.741Z,16.50
2022-07-25T04:11:13.234Z,16.40
2022-07-25T04:13:39.715Z,16.50
2022-07-25T04:16:08.405Z,16.40
2022-07-25T04:18:36.980Z,16.50
2022-07-25T04:21:05.614Z,16.50
2022-07-25T04:23:33.361Z,16.60
2022-07-25T04:25:59.891Z,16.60
2022-07-25T04:28:26.637Z,16.70
2022-07-25T04:30:53.461Z,16.70
2022-07-25T04:33:20.224Z,16.80
2022-07-25T04:35:47.348Z,16.90
2022-07-25T04:38:13.841Z,16.90
2022-07-25T04:40:40.518Z,16.90
2022-07-25T04:43:08.404Z,17.00
2022-07-25T04:45:34.950Z,17.10
2022-07-25T04:48:02.350Z,17.20
2022-07-25T04:50:29.580Z,17.30
2022-07-25T04:52:56.078Z,17.30
2022-07-25T04:55:23.657Z,17.50
2022-07-25T04:57:50.239Z,17.50
2022-07-25T05:00:17.263Z,17.60
2022-07-25T05:02:44.353Z,17.70
2022-07-25T05:05:21.434Z,18.00
2022-07-25T05:07:48.503Z,18.20
2022-07-25T05:10:15.040Z,18.40
2022-07-25T05:12:41.494Z,18.50
2022-07-25T05:15:08.467Z,18.50
2022-07-25T05:17:35.063Z,18.80
2022-07-25T05:20:01.929Z,18.90
2022-07-25T05:22:28.425Z,19.10
2022-07-25T05:24:56.229Z,19.30
2022-07-25T05:27:23.070Z,19.60
2022-07-25T05:29:49.587Z,19.80
2022-07-25T05:32:16.258Z,20.10
2022-07-25T05:34:42.740Z,20.30
2022-07-25T05:37:09.263Z,20.30
2022-07-25T05:39:37.415Z,20.60
2022-07-25T05:42:03.931Z,20.80
2022-07-25T05:44:30.418Z,21.00
2022-07-25T05:46:57.000Z,21.10
2022-07-25T05:49:23.581Z,21.30
2022-07-25T05:51:50.210Z,21.40
2022-07-25T05:54:16.883Z,21.60
2022-07-25T05:56:43.379Z,21.70
2022-07-25T05:59:09.877Z,21.80
2022-07-25T06:01:36.655Z,22.00
2022-07-25T06:04:03.501Z,22.90
2022-07-25T06:06:32.639Z,24.40
2022-07-25T06:08:59.179Z,25.50
2022-07-25T06:11:30.647Z,26.90
2022-07-25T06:13:57.812Z,28.40
2022-07-25T06:16:24.525Z,29.00
2022-07-25T06:18:51.128Z,29.60
2022-07-25T06:21:17.605Z,29.60
2022-07-25T06:23:44.086Z,31.40
2022-07-25T06:26:11.425Z,32.00
2022-07-25T06:28:38.485Z,31.50
2022-07-25T06:31:05.191Z,34.00
2022-07-25T06:33:31.761Z,34.00
2022-07-25T06:35:58.356Z,33.80
2022-07-25T06:38:24.868Z,35.70
2022-07-25T06:40:51.443Z,35.50
2022-07-25T06:43:18.126Z,36.90
2022-07-25T06:45:47.482Z,36.50
2022-07-25T06:48:17.728Z,38.20
2022-07-25T06:50:45.311Z,37.90
2022-07-25T06:53:12.144Z,39.10
2022-07-25T06:55:38.701Z,36.30
2022-07-25T06:58:05.354Z,37.20
2022-07-25T07:00:31.938Z,38.40
2022-07-25T07:03:01.561Z,36.70
2022-07-25T07:05:30.811Z,37.70
2022-07-25T07:07:57.962Z,37.40
2022-07-25T07:10:25.338Z,37.60
2022-07-25T07:13:02.999Z,39.40
2022-07-25T07:15:29.683Z,38.50
2022-07-25T07:17:56.276Z,41.10
2022-07-25T07:20:22.861Z,41.80
2022-07-25T07:22:49.770Z,42.10
2022-07-25T07:25:18.446Z,42.20
2022-07-25T07:27:46.850Z,41.70
2022-07-25T07:30:22.216Z,42.70
2022-07-25T07:32:50.878Z,41.60
2022-07-25T07:35:19.008Z,40.60
2022-07-25T07:37:46.843Z,42.60
2022-07-25T07:40:17.454Z,42.80
2022-07-25T07:42:47.612Z,42.70
2022-07-25T07:45:22.818Z,41.10
2022-07-25T07:47:51.484Z,38.10
2022-07-25T07:50:22.162Z,38.10
2022-07-25T07:52:49.447Z,39.60
2022-07-25T07:55:34.619Z,38.90
2022-07-25T07:58:01.575Z,43.10
2022-07-25T08:00:31.097Z,42.50
2022-07-25T08:02:58.995Z,40.80
2022-07-25T08:05:31.116Z,39.90
2022-07-25T08:07:58.079Z,40.60
2022-07-25T08:10:27.352Z,41.40
2022-07-25T08:12:54.184Z,42.70
2022-07-25T08:15:21.691Z,43.30
2022-07-25T08:17:50.334Z,41.50
2022-07-25T08:20:36.772Z,43.60
2022-07-25T08:23:04.978Z,42.90
2022-07-25T08:25:31.562Z,43.80
2022-07-25T08:27:59.095Z,44.90
2022-07-25T08:30:25.679Z,44.00
2022-07-25T08:32:59.769Z,44.10
2022-07-25T08:35:27.826Z,46.10
2022-07-25T08:37:55.132Z,42.30
2022-07-25T08:40:24.862Z,41.90
2022-07-25T08:42:51.769Z,41.20
2022-07-25T08:45:20.401Z,43.90
2022-07-25T08:47:48.352Z,39.30
2022-07-25T08:50:18.196Z,41.20
2022-07-25T08:52:45.423Z,42.30
2022-07-25T08:55:15.652Z,41.60
2022-07-25T08:57:46.026Z,41.00
2022-07-25T09:00:16.761Z,41.80
2022-07-25T09:02:43.594Z,44.10
2022-07-25T09:05:10.415Z,43.90
2022-07-25T09:07:39.416Z,43.70
2022-07-25T09:10:24.024Z,42.70
2022-07-25T09:13:14.275Z,43.50
2022-07-25T09:15:45.085Z,42.40
2022-07-25T09:18:17.054Z,43.70
2022-07-25T09:20:55.533Z,43.50
2022-07-25T09:23:31.366Z,44.70
2022-07-25T09:26:07.657Z,41.90
2022-07-25T09:28:41.470Z,42.10
2022-07-25T09:31:09.666Z,43.90
2022-07-25T09:33:54.295Z,43.60
2022-07-25T09:36:20.813Z,42.60
2022-07-25T09:39:01.047Z,44.00
2022-07-25T09:41:39.206Z,43.90
2022-07-25T09:44:17.620Z,43.30
2022-07-25T09:46:44.238Z,43.00
2022-07-25T09:49:14.500Z,44.10
2022-07-25T09:51:42.282Z,43.60
2022-07-25T09:54:09.292Z,41.50
2022-07-25T09:56:36.091Z,44.60
2022-07-25T09:59:04.072Z,42.80
2022-07-25T10:01:48.291Z,44.50
2022-07-25T10:04:21.160Z,43.70
2022-07-25T10:07:02.140Z,42.30
2022-07-25T10:09:28.819Z,41.60
2022-07-25T10:12:12.070Z,43.80
2022-07-25T10:14:39.151Z,42.20
2022-07-25T10:17:06.257Z,43.10
2022-07-25T10:19:55.413Z,41.90
2022-07-25T10:22:58.631Z,42.90
2022-07-25T10:25:25.512Z,42.20
2022-07-25T10:28:00.996Z,42.50
2022-07-25T10:30:33.513Z,42.80
2022-07-25T10:33:06.798Z,41.90
2022-07-25T10:35:33.654Z,40.40
2022-07-25T10:38:04.340Z,40.40
2022-07-25T10:40:43.945Z,40.30
2022-07-25T10:43:25.699Z,40.70
2022-07-25T10:45:59.614Z,41.80
2022-07-25T10:48:31.581Z,40.30
2022-07-25T10:51:00.654Z,40.50
2022-07-25T10:53:47.291Z,39.30
2022-07-25T10:56:22.120Z,39.80
2022-07-25T10:59:00.362Z,40.50
2022-07-25T11:01:36.497Z,41.20
2022-07-25T11:04:06.137Z,40.90
2022-07-25T11:06:41.662Z,39.30
2022-07-25T11:09:27.397Z,39.40
2022-07-25T11:11:59.028Z,40.30
2022-07-25T11:14:41.494Z,41.20
2022-07-25T11:17:16.882Z,40.80
2022-07-25T11:19:44.942Z,39.00
2022-07-25T11:22:11.983Z,39.90
2022-07-25T11:24:44.630Z,39.90
2022-07-25T11:27:13.549Z,39.20
2022-07-25T11:29:40.982Z,40.30
2022-07-25T11:32:12.266Z,40.70
2022-07-25T11:34:42.224Z,39.80
2022-07-25T11:37:09.931Z,39.50
2022-07-25T11:39:40.237Z,39.60
2022-07-25T11:42:07.921Z,40.40
2022-07-25T11:44:37.669Z,40.00
2022-07-25T11:47:06.205Z,39.40
2022-07-25T11:49:44.192Z,39.70
2022-07-25T11:52:21.436Z,39.30
2022-07-25T11:54:52.162Z,39.20
2022-07-25T11:57:26.062Z,39.60
2022-07-25T11:59:53.619Z,38.70
2022-07-25T12:02:35.444Z,37.90
2022-07-25T12:05:09.913Z,39.30
2022-07-25T12:07:51.788Z,39.60
2022-07-25T12:10:19.772Z,39.60
2022-07-25T12:12:55.640Z,39.20
2022-07-25T12:15:35.974Z,39.40
2022-07-25T12:18:03.133Z,39.30
2022-07-25T12:20:33.239Z,39.00
2022-07-25T12:23:04.513Z,39.50
2022-07-25T12:25:32.216Z,38.40
2022-07-25T12:28:00.025Z,38.10
2022-07-25T12:30:28.671Z,40.00
2022-07-25T12:32:56.193Z,39.80
2022-07-25T12:35:23.122Z,40.00
2022-07-25T12:37:49.827Z,39.10
2022-07-25T12:40:17.971Z,40.20
2022-07-25T12:42:45.092Z,39.70
2022-07-25T12:45:15.495Z,39.90
2022-07-25T12:47:43.796Z,39.00
2022-07-25T12:50:10.345Z,38.90
2022-07-25T12:52:38.175Z,38.20
2022-07-25T12:55:06.810Z,39.40
2022-07-25T12:57:35.091Z,38.00
2022-07-25T13:00:01.969Z,38.30
2022-07-25T13:02:28.552Z,38.70
2022-07-25T13:04:55.302Z,38.40
2022-07-25T13:07:21.776Z,38.10
2022-07-25T13:09:48.248Z,37.80
2022-07-25T13:12:16.539Z,38.40
2022-07-25T13:14:45.501Z,38.60
2022-07-25T13:17:12.091Z,38.30
2022-07-25T13:19:38.811Z,37.80
2022-07-25T13:22:05.810Z,38.40
2022-07-25T13:24:34.490Z,38.80
2022-07-25T13:27:08.282Z,38.80
2022-07-25T13:29:35.164Z,39.10
2022-07-25T13:32:02.125Z,38.60
2022-07-25T13:34:28.700Z,38.20
2022-07-25T13:36:55.256Z,37.90
2022-07-25T13:39:22.505Z,38.10
2022-07-25T13:41:49.681Z,38.30
2022-07-25T13:44:16.426Z,38.50
2022-07-25T13:46:46.045Z,39.20
2022-07-25T13:49:13.023Z,39.60
2022-07-25T13:51:39.611Z,39.20
2022-07-25T13:54:06.299Z,38.60
2022-07-25T13:56:33.126Z,38.40
2022-07-25T13:58:59.709Z,38.10
2022-07-25T14:01:28.529Z,38.10
2022-07-25T14:03:55.546Z,37.90
2022-07-25T14:06:22.308Z,38.70
2022-07-25T14:08:49.573Z,38.60
2022-07-25T14:11:16.047Z,39.10
2022-07-25T14:13:43.730Z,39.20
2022-07-25T14:16:10.375Z,39.00
2022-07-25T14:18:36.900Z,39.40
2022-07-25T14:21:03.710Z,39.60
2022-07-25T14:23:30.435Z,39.00
2022-07-25T14:25:58.559Z,37.80
2022-07-25T14:28:25.384Z,37.60
2022-07-25T14:30:52.321Z,37.00
2022-07-25T14:33:18.872Z,37.20
2022-07-25T14:35:45.402Z,37.10
2022-07-25T14:38:12.150Z,37.70
2022-07-25T14:40:38.660Z,37.40
2022-07-25T14:43:05.155Z,37.30
2022-07-25T14:45:31.792Z,37.50
2022-07-25T14:47:58.480Z,37.30
2022-07-25T14:50:25.017Z,37.30
2022-07-25T14:52:51.572Z,36.80
2022-07-25T14:55:18.751Z,36.80
2022-07-25T14:57:45.318Z,36.70
2022-07-25T15:00:12.408Z,36.50
2022-07-25T15:02:38.897Z,36.40
2022-07-25T15:05:05.810Z,36.70
2022-07-25T15:07:32.352Z,36.40
2022-07-25T15:09:58.856Z,36.60
2022-07-25T15:12:25.421Z,36.80
2022-07-25T15:14:52.070Z,36.70
2022-07-25T15:17:18.597Z,36.80
2022-07-25T15:19:45.121Z,37.10
2022-07-25T15:22:11.600Z,37.20
2022-07-25T15:24:57.622Z,37.70
2022-07-25T15:27:24.792Z,37.10
2022-07-25T15:29:51.357Z,38.00
2022-07-25T15:32:17.950Z,37.30
2022-07-25T15:34:44.671Z,36.90
2022-07-25T15:37:11.755Z,37.70
2022-07-25T15:39:38.217Z,37.40
2022-07-25T15:42:04.794Z,37.90
2022-07-25T15:44:32.676Z,38.30
2022-07-25T15:46:59.536Z,38.20
2022-07-25T15:49:26.247Z,38.50
2022-07-25T15:51:52.738Z,38.10
2022-07-25T15:54:19.247Z,38.30
2022-07-25T15:56:45.766Z,37.80
2022-07-25T15:59:13.195Z,37.20
2022-07-25T16:01:39.820Z,37.30
2022-07-25T16:04:07.059Z,37.10
2022-07-25T16:06:33.553Z,36.60
2022-07-25T16:09:00.082Z,36.40
2022-07-25T16:11:26.694Z,36.50
2022-07-25T16:13:53.729Z,36.70
2022-07-25T16:16:22.054Z,36.80
2022-07-25T16:18:49.075Z,36.70
2022-07-25T16:21:15.693Z,36.30
2022-07-25T16:23:45.607Z,36.00
2022-07-25T16:26:12.337Z,35.80
2022-07-25T16:28:39.887Z,36.10
2022-07-25T16:31:07.073Z,35.40
2022-07-25T16:33:33.882Z,35.30
2022-07-25T16:36:00.417Z,35.20
2022-07-25T16:38:28.788Z,35.30
2022-07-25T16:40:55.427Z,34.90
2022-07-25T16:43:21.925Z,33.60
2022-07-25T16:45:48.810Z,32.60
2022-07-25T16:48:17.675Z,30.30
2022-07-25T16:50:45.013Z,27.90
2022-07-25T16:53:11.510Z,26.90
2022-07-25T16:55:38.825Z,26.30
2022-07-25T16:58:05.331Z,26.20
2022-07-25T17:00:33.482Z,26.70
2022-07-25T17:03:01.036Z,26.70
2022-07-25T17:05:27.555Z,26.00
2022-07-25T17:07:59.466Z,26.80
2022-07-25T17:10:27.015Z,26.40
2022-07-25T17:12:53.551Z,26.30
2022-07-25T17:15:20.150Z,26.30
2022-07-25T17:17:46.620Z,25.70
2022-07-25T17:20:13.579Z,25.80
2022-07-25T17:22:40.046Z,26.00
2022-07-25T17:25:07.136Z,26.00
2022-07-25T17:27:33.629Z,25.90
2022-07-25T17:30:00.211Z,26.10
2022-07-25T17:32:30.020Z,25.70
2022-07-25T17:34:57.362Z,25.50
2022-07-25T17:37:24.362Z,25.40
2022-07-25T17:39:50.921Z,25.50
2022-07-25T17:42:22.231Z,25.50
2022-07-25T17:44:49.963Z,24.90
2022-07-25T17:47:17.642Z,25.00
2022-07-25T17:49:44.502Z,24.70
2022-07-25T17:52:15.567Z,24.70
2022-07-25T17:54:42.614Z,25.20
2022-07-25T17:57:09.362Z,25.40
2022-07-25T17:59:35.950Z,25.40
2022-07-25T18:02:03.184Z,25.20
2022-07-25T18:04:29.760Z,25.00
2022-07-25T18:06:56.269Z,25.00
2022-07-25T18:09:24.082Z,25.10
2022-07-25T18:11:50.837Z,25.00
2022-07-25T18:14:17.317Z,24.70
2022-07-25T18:16:45.386Z,24.90
2022-07-25T18:19:12.179Z,25.10
2022-07-25T18:21:38.646Z,24.70
2022-07-25T18:24:06.361Z,25.10
2022-07-25T18:26:33.915Z,24.90
2022-07-25T18:29:00.447Z,24.90
2022-07-25T18:31:26.971Z,24.60
2022-07-25T18:33:53.662Z,24.40
2022-07-25T18:36:20.446Z,24.70
2022-07-25T18:38:48.538Z,24.50
2022-07-25T18:41:30.984Z,24.50
2022-07-25T18:43:57.736Z,24.50
2022-07-25T18:46:24.652Z,24.60
2022-07-25T18:48:51.331Z,24.40
2022-07-25T18:51:18.993Z,24.30
2022-07-25T18:53:48.200Z,24.30
2022-07-25T18:56:15.157Z,24.00
2022-07-25T18:58:41.640Z,24.00
2022-07-25T19:01:09.299Z,24.00
2022-07-25T19:03:37.378Z,23.90
2022-07-25T19:06:05.049Z,23.80
2022-07-25T19:08:32.458Z,23.90
2022-07-25T19:10:59.043Z,23.80
2022-07-25T19:13:47.802Z,23.90
2022-07-25T19:16:12.100Z,23.60
2022-07-25T19:18:38.945Z,23.60
2022-07-25T19:21:05.980Z,23.70
2022-07-25T19:23:32.804Z,23.70
2022-07-25T19:26:01.100Z,23.60
2022-07-25T19:28:28.901Z,23.60
2022-07-25T19:30:56.304Z,23.70
2022-07-25T19:33:22.790Z,23.30
2022-07-25T19:35:49.291Z,23.20
2022-07-25T19:38:15.792Z,23.20
2022-07-25T19:40:42.928Z,23.10
2022-07-25T19:43:09.461Z,22.90
2022-07-25T19:45:36.569Z,23.10
2022-07-25T19:48:03.038Z,22.80
2022-07-25T19:50:29.514Z,23.10
2022-07-25T19:52:55.985Z,22.70
2022-07-25T19:55:22.573Z,22.60
2022-07-25T19:57:49.130Z,22.90
2022-07-25T20:00:15.805Z,22.90
2022-07-25T20:02:43.306Z,23.00
2022-07-25T20:05:09.984Z,23.00
2022-07-25T20:07:36.437Z,22.70
2022-07-25T20:10:03.559Z,22.70
2022-07-25T20:12:30.319Z,22.70
2022-07-25T20:14:56.792Z,22.70
2022-07-25T20:17:23.338Z,22.70
2022-07-25T20:19:49.848Z,22.90
2022-07-25T20:22:16.455Z,22.70
2022-07-25T20:24:43.045Z,22.70
2022-07-25T20:27:09.587Z,22.60
2022-07-25T20:29:36.094Z,22.60
2022-07-25T20:32:04.163Z,22.60
2022-07-25T20:34:30.810Z,22.60
2022-07-25T20:36:57.279Z,22.60
2022-07-25T20:39:23.765Z,22.40
2022-07-25T20:41:50.246Z,22.40
2022-07-25T20:44:16.742Z,22.40
2022-07-25T20:46:43.561Z,22.50
2022-07-25T20:49:11.591Z,22.50
2022-07-25T20:51:40.415Z,22.30
2022-07-25T20:54:07.044Z,22.40
2022-07-25T20:56:33.684Z,22.40
2022-07-25T20:59:00.190Z,22.50
2022-07-25T21:01:26.723Z,22.60
2022-07-25T21:03:53.306Z,22.70
2022-07-25T21:06:19.907Z,22.70
2022-07-25T21:08:53.544Z,22.60
2022-07-25T21:11:20.083Z,22.60
2022-07-25T21:13:46.599Z,22.40
2022-07-25T21:16:13.211Z,22.20
2022-07-25T21:18:39.823Z,22.20
2022-07-25T21:21:11.738Z,22.30
2022-07-25T21:23:38.870Z,22.30
2022-07-25T21:26:05.673Z,22.10
2022-07-25T21:28:32.196Z,22.10
2022-07-25T21:30:58.714Z,22.20
2022-07-25T21:33:25.279Z,22.10
2022-07-25T21:35:53.769Z,22.00
2022-07-25T21:38:26.114Z,22.10
2022-07-25T21:40:54.429Z,22.00
2022-07-25T21:43:20.947Z,22.00
2022-07-25T21:45:47.487Z,22.10
2022-07-25T21:48:14.005Z,22.00
2022-07-25T21:50:43.983Z,22.20
2022-07-25T21:53:14.459Z,22.00
2022-07-25T21:55:42.276Z,22.00
2022-07-25T21:58:08.798Z,21.90
2022-07-25T22:00:40.032Z,21.70
2022-07-25T22:03:10.641Z,21.70
2022-07-25T22:05:37.139Z,21.80
2022-07-25T22:08:04.256Z,21.90
2022-07-25T22:10:31.106Z,21.60
2022-07-25T22:12:57.603Z,21.70
2022-07-25T22:15:24.079Z,21.50
2022-07-25T22:17:50.778Z,21.50
2022-07-25T22:20:18.925Z,21.60
2022-07-25T22:22:47.379Z,21.70
2022-07-25T22:25:15.939Z,21.70
2022-07-25T22:27:42.474Z,21.90
2022-07-25T22:30:13.453Z,21.50
2022-07-25T22:32:44.958Z,21.80
2022-07-25T22:35:12.670Z,21.50
2022-07-25T22:37:39.181Z,21.50
2022-07-25T22:40:06.203Z,21.50
2022-07-25T22:42:32.695Z,21.50
2022-07-25T22:44:59.231Z,21.50
2022-07-25T22:47:25.802Z,21.30
2022-07-25T22:49:52.255Z,21.30
2022-07-25T22:52:18.745Z,21.30
2022-07-25T22:54:45.261Z,21.40
2022-07-25T22:57:11.769Z,21.40
2022-07-25T22:59:38.297Z,21.40
2022-07-25T23:02:04.887Z,21.20
2022-07-25T23:04:31.453Z,21.10
2022-07-25T23:06:57.977Z,21.10
2022-07-25T23:09:24.500Z,21.10
2022-07-25T23:12:00.455Z,21.30
2022-07-25T23:14:26.955Z,21.30
2022-07-25T23:17:12.058Z,21.30
2022-07-25T23:19:38.632Z,21.30
2022-07-25T23:22:05.311Z,21.10
2022-07-25T23:24:35.800Z,21.00
2022-07-25T23:27:04.337Z,21.10
2022-07-25T23:29:30.857Z,21.00
2022-07-25T23:31:59.090Z,20.90
2022-07-25T23:34:26.633Z,21.00
2022-07-25T23:36:53.129Z,21.10
2022-07-25T23:39:25.540Z,20.80
2022-07-25T23:41:52.184Z,21.00
2022-07-25T23:44:18.799Z,20.90
2022-07-25T23:46:46.399Z,21.10
2022-07-25T23:49:13.584Z,21.10
2022-07-25T23:51:40.265Z,21.10
2022-07-25T23:54:08.100Z,21.20
2022-07-25T23:56:34.576Z,21.10
2022-07-25T23:59:01.094Z,21.20
